sensor_id;sensor_type;location;lat;lon;timestamp;temperature;humidity
4647;DHT22;2336;47.822;7.564;2024-03-22T00:02:26;11.30;99.90
4647;DHT22;2336;47.822;7.564;2024-03-22T00:04:53;11.20;99.90
4647;DHT22;2336;47.822;7.564;2024-03-22T00:07:18;11.20;99.90
4647;DHT22;2336;47.822;7.564;2024-03-22T00:09:45;11.10;99.90
4647;DHT22;2336;47.822;7.564;2024-03-22T00:12:11;11.10;99.90
4647;DHT22;2336;47.822;7.564;2024-03-22T00:14:38;11.00;99.90
4647;DHT22;2336;47.822;7.564;2024-03-22T00:17:04;11.00;99.90
4647;DHT22;2336;47.822;7.564;2024-03-22T00:19:32;11.00;99.90
4647;DHT22;2336;47.822;7.564;2024-03-22T00:21:58;11.00;99.90
4647;DHT22;2336;47.822;7.564;2024-03-22T00:24:24;11.10;99.90
4647;DHT22;2336;47.822;7.564;2024-03-22T00:26:50;11.20;99.90
4647;DHT22;2336;47.822;7.564;2024-03-22T00:29:17;11.30;99.90
4647;DHT22;2336;47.822;7.564;2024-03-22T00:31:44;11.30;99.90
4647;DHT22;2336;47.822;7.564;2024-03-22T00:34:11;11.30;99.90
4647;DHT22;2336;47.822;7.564;2024-03-22T00:36:38;11.30;99.90
4647;DHT22;2336;47.822;7.564;2024-03-22T00:39:05;11.20;99.90
4647;DHT22;2336;47.822;7.564;2024-03-22T00:41:31;11.10;99.90
4647;DHT22;2336;47.822;7.564;2024-03-22T00:43:58;11.00;99.90
4647;DHT22;2336;47.822;7.564;2024-03-22T00:46:24;10.90;99.90
4647;DHT22;2336;47.822;7.564;2024-03-22T00:48:50;10.80;99.90
4647;DHT22;2336;47.822;7.564;2024-03-22T00:51:16;10.70;99.90
4647;DHT22;2336;47.822;7.564;2024-03-22T00:53:45;10.60;99.90
4647;DHT22;2336;47.822;7.564;2024-03-22T00:56:10;10.60;99.90
4647;DHT22;2336;47.822;7.564;2024-03-22T00:58:37;10.50;99.90
4647;DHT22;2336;47.822;7.564;2024-03-22T01:01:03;10.40;99.90
4647;DHT22;2336;47.822;7.564;2024-03-22T01:03:31;10.40;99.90
4647;DHT22;2336;47.822;7.564;2024-03-22T01:05:56;10.20;99.90
4647;DHT22;2336;47.822;7.564;2024-03-22T01:08:24;10.10;99.90
4647;DHT22;2336;47.822;7.564;2024-03-22T01:10:51;10.10;99.90
4647;DHT22;2336;47.822;7.564;2024-03-22T01:13:18;10.00;99.90
4647;DHT22;2336;47.822;7.564;2024-03-22T01:15:44;9.90;99.90
4647;DHT22;2336;47.822;7.564;2024-03-22T01:18:11;9.80;99.90
4647;DHT22;2336;47.822;7.564;2024-03-22T01:20:37;9.80;99.90
4647;DHT22;2336;47.822;7.564;2024-03-22T01:23:04;9.70;99.90
4647;DHT22;2336;47.822;7.564;2024-03-22T01:25:30;9.70;99.90
4647;DHT22;2336;47.822;7.564;2024-03-22T01:27:58;9.60;99.90
4647;DHT22;2336;47.822;7.564;2024-03-22T01:30:24;9.50;99.90
4647;DHT22;2336;47.822;7.564;2024-03-22T01:32:53;9.40;99.90
4647;DHT22;2336;47.822;7.564;2024-03-22T01:35:19;9.50;99.90
4647;DHT22;2336;47.822;7.564;2024-03-22T01:37:46;9.60;99.90
4647;DHT22;2336;47.822;7.564;2024-03-22T01:40:13;9.70;99.90
4647;DHT22;2336;47.822;7.564;2024-03-22T01:42:40;9.90;99.90
4647;DHT22;2336;47.822;7.564;2024-03-22T01:45:08;10.00;99.90
4647;DHT22;2336;47.822;7.564;2024-03-22T01:47:35;10.00;99.90
4647;DHT22;2336;47.822;7.564;2024-03-22T01:50:01;10.00;99.90
4647;DHT22;2336;47.822;7.564;2024-03-22T01:52:28;10.00;99.90
4647;DHT22;2336;47.822;7.564;2024-03-22T01:54:55;10.20;99.90
4647;DHT22;2336;47.822;7.564;2024-03-22T01:57:21;10.20;99.90
4647;DHT22;2336;47.822;7.564;2024-03-22T01:59:51;10.20;99.90
4647;DHT22;2336;47.822;7.564;2024-03-22T02:02:22;10.30;99.90
4647;DHT22;2336;47.822;7.564;2024-03-22T02:04:50;10.40;99.90
4647;DHT22;2336;47.822;7.564;2024-03-22T02:07:17;10.40;99.90
4647;DHT22;2336;47.822;7.564;2024-03-22T02:09:43;10.50;99.90
4647;DHT22;2336;47.822;7.564;2024-03-22T02:12:10;10.50;99.90
4647;DHT22;2336;47.822;7.564;2024-03-22T02:14:36;10.60;99.90
4647;DHT22;2336;47.822;7.564;2024-03-22T02:17:03;10.60;99.90
4647;DHT22;2336;47.822;7.564;2024-03-22T02:19:30;10.60;99.90
4647;DHT22;2336;47.822;7.564;2024-03-22T02:21:57;10.60;99.90
4647;DHT22;2336;47.822;7.564;2024-03-22T02:24:24;10.60;99.90
4647;DHT22;2336;47.822;7.564;2024-03-22T02:26:51;10.60;99.90
4647;DHT22;2336;47.822;7.564;2024-03-22T02:29:17;10.60;99.90
4647;DHT22;2336;47.822;7.564;2024-03-22T02:31:44;10.60;99.90
4647;DHT22;2336;47.822;7.564;2024-03-22T02:34:09;10.60;99.90
4647;DHT22;2336;47.822;7.564;2024-03-22T02:36:36;10.60;99.90
4647;DHT22;2336;47.822;7.564;2024-03-22T02:39:02;10.60;99.90
4647;DHT22;2336;47.822;7.564;2024-03-22T02:41:31;10.60;99.90
4647;DHT22;2336;47.822;7.564;2024-03-22T02:43:57;10.60;99.90
4647;DHT22;2336;47.822;7.564;2024-03-22T02:46:24;10.60;99.90
4647;DHT22;2336;47.822;7.564;2024-03-22T02:48:49;10.50;99.90
4647;DHT22;2336;47.822;7.564;2024-03-22T02:51:16;10.40;99.90
4647;DHT22;2336;47.822;7.564;2024-03-22T02:53:42;10.40;99.90
4647;DHT22;2336;47.822;7.564;2024-03-22T02:56:09;10.50;99.90
4647;DHT22;2336;47.822;7.564;2024-03-22T02:58:36;10.50;99.90
4647;DHT22;2336;47.822;7.564;2024-03-22T03:01:03;10.50;99.90
4647;DHT22;2336;47.822;7.564;2024-03-22T03:03:29;10.50;99.90
4647;DHT22;2336;47.822;7.564;2024-03-22T03:05:56;10.60;99.90
4647;DHT22;2336;47.822;7.564;2024-03-22T03:08:21;10.60;99.90
4647;DHT22;2336;47.822;7.564;2024-03-22T03:10:48;10.60;99.90
4647;DHT22;2336;47.822;7.564;2024-03-22T03:13:14;10.60;99.90
4647;DHT22;2336;47.822;7.564;2024-03-22T03:15:42;10.60;99.90
4647;DHT22;2336;47.822;7.564;2024-03-22T03:18:08;10.60;99.90
4647;DHT22;2336;47.822;7.564;2024-03-22T03:20:36;10.60;99.90
4647;DHT22;2336;47.822;7.564;2024-03-22T03:23:03;10.60;99.90
4647;DHT22;2336;47.822;7.564;2024-03-22T03:25:30;10.60;99.90
4647;DHT22;2336;47.822;7.564;2024-03-22T03:27:56;10.60;99.90
4647;DHT22;2336;47.822;7.564;2024-03-22T03:30:22;10.60;99.90
4647;DHT22;2336;47.822;7.564;2024-03-22T03:32:50;10.60;99.90
4647;DHT22;2336;47.822;7.564;2024-03-22T03:35:16;10.60;99.90
4647;DHT22;2336;47.822;7.564;2024-03-22T03:37:42;10.60;99.90
4647;DHT22;2336;47.822;7.564;2024-03-22T03:40:11;10.60;99.90
4647;DHT22;2336;47.822;7.564;2024-03-22T03:42:37;10.70;99.90
4647;DHT22;2336;47.822;7.564;2024-03-22T03:45:04;10.60;99.90
4647;DHT22;2336;47.822;7.564;2024-03-22T03:47:30;10.70;99.90
4647;DHT22;2336;47.822;7.564;2024-03-22T03:49:58;10.60;99.90
4647;DHT22;2336;47.822;7.564;2024-03-22T03:52:24;10.70;99.90
4647;DHT22;2336;47.822;7.564;2024-03-22T03:54:51;10.60;99.90
4647;DHT22;2336;47.822;7.564;2024-03-22T03:57:18;10.70;99.90
4647;DHT22;2336;47.822;7.564;2024-03-22T03:59:45;10.70;99.90
4647;DHT22;2336;47.822;7.564;2024-03-22T04:02:10;10.70;99.90
4647;DHT22;2336;47.822;7.564;2024-03-22T04:04:37;10.70;99.90
4647;DHT22;2336;47.822;7.564;2024-03-22T04:07:04;10.70;99.90
4647;DHT22;2336;47.822;7.564;2024-03-22T04:09:32;10.70;99.90
4647;DHT22;2336;47.822;7.564;2024-03-22T04:11:58;10.70;99.90
4647;DHT22;2336;47.822;7.564;2024-03-22T04:14:27;10.60;99.90
4647;DHT22;2336;47.822;7.564;2024-03-22T04:16:53;10.60;99.90
4647;DHT22;2336;47.822;7.564;2024-03-22T04:19:21;10.60;99.90
4647;DHT22;2336;47.822;7.564;2024-03-22T04:21:49;10.60;99.90
4647;DHT22;2336;47.822;7.564;2024-03-22T04:24:18;10.50;99.90
4647;DHT22;2336;47.822;7.564;2024-03-22T04:26:43;10.50;99.90
4647;DHT22;2336;47.822;7.564;2024-03-22T04:29:10;10.50;99.90
4647;DHT22;2336;47.822;7.564;2024-03-22T04:31:36;10.40;99.90
4647;DHT22;2336;47.822;7.564;2024-03-22T04:34:03;10.40;99.90
4647;DHT22;2336;47.822;7.564;2024-03-22T04:36:31;10.50;99.90
4647;DHT22;2336;47.822;7.564;2024-03-22T04:38:58;10.50;99.90
4647;DHT22;2336;47.822;7.564;2024-03-22T04:41:26;10.60;99.90
4647;DHT22;2336;47.822;7.564;2024-03-22T04:43:52;10.60;99.90
4647;DHT22;2336;47.822;7.564;2024-03-22T04:46:19;10.50;99.90
4647;DHT22;2336;47.822;7.564;2024-03-22T04:48:46;10.50;99.90
4647;DHT22;2336;47.822;7.564;2024-03-22T04:51:12;10.50;99.90
4647;DHT22;2336;47.822;7.564;2024-03-22T04:53:38;10.50;99.90
4647;DHT22;2336;47.822;7.564;2024-03-22T04:56:05;10.40;99.90
4647;DHT22;2336;47.822;7.564;2024-03-22T04:58:34;10.40;99.90
4647;DHT22;2336;47.822;7.564;2024-03-22T05:01:00;10.40;99.90
4647;DHT22;2336;47.822;7.564;2024-03-22T05:03:27;10.30;99.90
4647;DHT22;2336;47.822;7.564;2024-03-22T05:05:53;10.40;99.90
4647;DHT22;2336;47.822;7.564;2024-03-22T05:08:21;10.40;99.90
4647;DHT22;2336;47.822;7.564;2024-03-22T05:10:47;10.40;99.90
4647;DHT22;2336;47.822;7.564;2024-03-22T05:13:14;10.40;99.90
4647;DHT22;2336;47.822;7.564;2024-03-22T05:15:41;10.40;99.90
4647;DHT22;2336;47.822;7.564;2024-03-22T05:18:08;10.40;99.90
4647;DHT22;2336;47.822;7.564;2024-03-22T05:20:34;10.40;99.90
4647;DHT22;2336;47.822;7.564;2024-03-22T05:23:01;10.50;99.90
4647;DHT22;2336;47.822;7.564;2024-03-22T05:25:27;10.50;99.90
4647;DHT22;2336;47.822;7.564;2024-03-22T05:27:54;10.50;99.90
4647;DHT22;2336;47.822;7.564;2024-03-22T05:30:20;10.40;99.90
4647;DHT22;2336;47.822;7.564;2024-03-22T05:32:48;10.50;99.90
4647;DHT22;2336;47.822;7.564;2024-03-22T05:35:15;10.40;99.90
4647;DHT22;2336;47.822;7.564;2024-03-22T05:37:44;10.40;99.90
4647;DHT22;2336;47.822;7.564;2024-03-22T05:40:11;10.40;99.90
4647;DHT22;2336;47.822;7.564;2024-03-22T05:42:38;10.50;99.90
4647;DHT22;2336;47.822;7.564;2024-03-22T05:45:05;10.40;99.90
4647;DHT22;2336;47.822;7.564;2024-03-22T05:47:32;10.50;99.90
4647;DHT22;2336;47.822;7.564;2024-03-22T05:50:00;10.50;99.90
4647;DHT22;2336;47.822;7.564;2024-03-22T05:52:28;10.50;99.90
4647;DHT22;2336;47.822;7.564;2024-03-22T05:54:53;10.50;99.90
4647;DHT22;2336;47.822;7.564;2024-03-22T05:57:21;10.50;99.90
4647;DHT22;2336;47.822;7.564;2024-03-22T05:59:46;10.50;99.90
4647;DHT22;2336;47.822;7.564;2024-03-22T06:02:14;10.50;99.90
4647;DHT22;2336;47.822;7.564;2024-03-22T06:04:40;10.50;99.90
4647;DHT22;2336;47.822;7.564;2024-03-22T06:07:09;10.50;99.90
4647;DHT22;2336;47.822;7.564;2024-03-22T06:09:35;10.50;99.90
4647;DHT22;2336;47.822;7.564;2024-03-22T06:12:11;10.60;99.90
4647;DHT22;2336;47.822;7.564;2024-03-22T06:14:39;10.60;99.90
4647;DHT22;2336;47.822;7.564;2024-03-22T06:17:05;10.70;99.90
4647;DHT22;2336;47.822;7.564;2024-03-22T06:19:32;10.60;99.90
4647;DHT22;2336;47.822;7.564;2024-03-22T06:21:58;10.70;99.90
4647;DHT22;2336;47.822;7.564;2024-03-22T06:24:26;10.70;99.90
4647;DHT22;2336;47.822;7.564;2024-03-22T06:26:52;10.70;99.90
4647;DHT22;2336;47.822;7.564;2024-03-22T06:29:19;10.70;99.90
4647;DHT22;2336;47.822;7.564;2024-03-22T06:31:45;10.70;99.90
4647;DHT22;2336;47.822;7.564;2024-03-22T06:34:15;10.80;99.90
4647;DHT22;2336;47.822;7.564;2024-03-22T06:36:41;10.80;99.90
4647;DHT22;2336;47.822;7.564;2024-03-22T06:39:08;10.80;99.90
4647;DHT22;2336;47.822;7.564;2024-03-22T06:41:37;10.90;99.90
4647;DHT22;2336;47.822;7.564;2024-03-22T06:44:04;10.90;99.90
4647;DHT22;2336;47.822;7.564;2024-03-22T06:46:30;10.90;99.90
4647;DHT22;2336;47.822;7.564;2024-03-22T06:48:58;11.00;99.90
4647;DHT22;2336;47.822;7.564;2024-03-22T06:51:24;11.00;99.90
4647;DHT22;2336;47.822;7.564;2024-03-22T06:53:51;11.10;99.90
4647;DHT22;2336;47.822;7.564;2024-03-22T06:56:17;11.10;99.90
4647;DHT22;2336;47.822;7.564;2024-03-22T06:58:45;11.00;99.90
4647;DHT22;2336;47.822;7.564;2024-03-22T07:01:11;11.10;99.90
4647;DHT22;2336;47.822;7.564;2024-03-22T07:03:37;11.20;99.90
4647;DHT22;2336;47.822;7.564;2024-03-22T07:06:03;11.20;99.90
4647;DHT22;2336;47.822;7.564;2024-03-22T07:08:31;11.10;99.90
4647;DHT22;2336;47.822;7.564;2024-03-22T07:10:57;11.10;99.90
4647;DHT22;2336;47.822;7.564;2024-03-22T07:13:25;11.10;99.90
4647;DHT22;2336;47.822;7.564;2024-03-22T07:15:52;11.10;99.90
4647;DHT22;2336;47.822;7.564;2024-03-22T07:18:19;11.20;99.90
4647;DHT22;2336;47.822;7.564;2024-03-22T07:20:45;11.20;99.90
4647;DHT22;2336;47.822;7.564;2024-03-22T07:23:13;11.20;99.90
4647;DHT22;2336;47.822;7.564;2024-03-22T07:25:39;11.20;99.90
4647;DHT22;2336;47.822;7.564;2024-03-22T07:28:08;11.20;99.90
4647;DHT22;2336;47.822;7.564;2024-03-22T07:30:34;11.20;99.90
4647;DHT22;2336;47.822;7.564;2024-03-22T07:33:04;11.30;99.90
4647;DHT22;2336;47.822;7.564;2024-03-22T07:35:30;11.30;99.90
4647;DHT22;2336;47.822;7.564;2024-03-22T07:37:57;11.40;99.90
4647;DHT22;2336;47.822;7.564;2024-03-22T07:40:23;11.50;99.90
4647;DHT22;2336;47.822;7.564;2024-03-22T07:42:50;11.60;99.90
4647;DHT22;2336;47.822;7.564;2024-03-22T07:45:15;11.70;99.90
4647;DHT22;2336;47.822;7.564;2024-03-22T07:47:42;11.80;99.90
4647;DHT22;2336;47.822;7.564;2024-03-22T07:50:10;12.00;99.90
4647;DHT22;2336;47.822;7.564;2024-03-22T07:52:38;12.10;99.90
4647;DHT22;2336;47.822;7.564;2024-03-22T07:55:05;12.10;99.90
4647;DHT22;2336;47.822;7.564;2024-03-22T07:57:31;12.20;99.90
4647;DHT22;2336;47.822;7.564;2024-03-22T07:59:57;12.20;99.90
4647;DHT22;2336;47.822;7.564;2024-03-22T08:02:23;12.20;99.90
4647;DHT22;2336;47.822;7.564;2024-03-22T08:04:50;12.30;99.90
4647;DHT22;2336;47.822;7.564;2024-03-22T08:07:18;12.30;99.90
4647;DHT22;2336;47.822;7.564;2024-03-22T08:09:46;12.30;99.90
4647;DHT22;2336;47.822;7.564;2024-03-22T08:12:12;12.40;99.90
4647;DHT22;2336;47.822;7.564;2024-03-22T08:14:39;12.40;99.90
4647;DHT22;2336;47.822;7.564;2024-03-22T08:17:06;12.40;99.90
4647;DHT22;2336;47.822;7.564;2024-03-22T08:19:34;12.50;99.90
4647;DHT22;2336;47.822;7.564;2024-03-22T08:22:00;12.60;99.90
4647;DHT22;2336;47.822;7.564;2024-03-22T08:24:28;12.70;99.90
4647;DHT22;2336;47.822;7.564;2024-03-22T08:26:54;12.80;99.90
4647;DHT22;2336;47.822;7.564;2024-03-22T08:29:21;12.90;99.90
4647;DHT22;2336;47.822;7.564;2024-03-22T08:31:47;13.00;99.90
4647;DHT22;2336;47.822;7.564;2024-03-22T08:34:14;13.10;99.90
4647;DHT22;2336;47.822;7.564;2024-03-22T08:36:41;13.10;99.90
4647;DHT22;2336;47.822;7.564;2024-03-22T08:39:08;13.10;99.90
4647;DHT22;2336;47.822;7.564;2024-03-22T08:41:37;13.20;99.90
4647;DHT22;2336;47.822;7.564;2024-03-22T08:44:04;13.30;99.90
4647;DHT22;2336;47.822;7.564;2024-03-22T08:46:30;13.30;99.90
4647;DHT22;2336;47.822;7.564;2024-03-22T08:48:57;13.40;99.90
4647;DHT22;2336;47.822;7.564;2024-03-22T08:51:23;13.50;99.90
4647;DHT22;2336;47.822;7.564;2024-03-22T08:53:50;13.60;99.90
4647;DHT22;2336;47.822;7.564;2024-03-22T08:56:16;13.80;99.90
4647;DHT22;2336;47.822;7.564;2024-03-22T08:58:44;14.00;99.90
4647;DHT22;2336;47.822;7.564;2024-03-22T09:01:10;14.20;99.90
4647;DHT22;2336;47.822;7.564;2024-03-22T09:03:37;14.30;99.90
4647;DHT22;2336;47.822;7.564;2024-03-22T09:06:03;14.40;99.90
4647;DHT22;2336;47.822;7.564;2024-03-22T09:08:30;14.50;99.90
4647;DHT22;2336;47.822;7.564;2024-03-22T09:10:56;14.70;99.90
4647;DHT22;2336;47.822;7.564;2024-03-22T09:13:24;14.80;99.90
4647;DHT22;2336;47.822;7.564;2024-03-22T09:15:57;14.90;99.90
4647;DHT22;2336;47.822;7.564;2024-03-22T09:18:24;15.20;99.90
4647;DHT22;2336;47.822;7.564;2024-03-22T09:20:50;15.30;99.90
4647;DHT22;2336;47.822;7.564;2024-03-22T09:23:18;15.20;99.90
4647;DHT22;2336;47.822;7.564;2024-03-22T09:25:44;15.20;99.90
4647;DHT22;2336;47.822;7.564;2024-03-22T09:28:13;15.30;99.90
4647;DHT22;2336;47.822;7.564;2024-03-22T09:30:39;15.40;99.90
4647;DHT22;2336;47.822;7.564;2024-03-22T09:33:08;15.60;99.90
4647;DHT22;2336;47.822;7.564;2024-03-22T09:35:34;15.80;99.90
4647;DHT22;2336;47.822;7.564;2024-03-22T09:38:03;16.00;99.90
4647;DHT22;2336;47.822;7.564;2024-03-22T09:40:29;16.00;99.90
4647;DHT22;2336;47.822;7.564;2024-03-22T09:43:01;16.00;99.90
4647;DHT22;2336;47.822;7.564;2024-03-22T09:45:28;16.10;99.90
4647;DHT22;2336;47.822;7.564;2024-03-22T09:47:57;16.10;99.90
4647;DHT22;2336;47.822;7.564;2024-03-22T09:50:25;16.20;99.90
4647;DHT22;2336;47.822;7.564;2024-03-22T09:52:52;16.20;99.90
4647;DHT22;2336;47.822;7.564;2024-03-22T09:55:21;16.50;99.90
4647;DHT22;2336;47.822;7.564;2024-03-22T09:57:49;16.40;99.90
4647;DHT22;2336;47.822;7.564;2024-03-22T10:00:17;16.60;99.90
4647;DHT22;2336;47.822;7.564;2024-03-22T10:02:46;16.60;99.90
4647;DHT22;2336;47.822;7.564;2024-03-22T10:05:12;16.80;99.90
4647;DHT22;2336;47.822;7.564;2024-03-22T10:07:43;17.00;99.90
4647;DHT22;2336;47.822;7.564;2024-03-22T10:10:09;17.00;99.90
4647;DHT22;2336;47.822;7.564;2024-03-22T10:12:36;17.20;99.90
4647;DHT22;2336;47.822;7.564;2024-03-22T10:15:02;17.30;99.90
4647;DHT22;2336;47.822;7.564;2024-03-22T10:17:31;17.30;99.90
4647;DHT22;2336;47.822;7.564;2024-03-22T10:19:57;17.40;99.90
4647;DHT22;2336;47.822;7.564;2024-03-22T10:22:25;17.60;99.90
4647;DHT22;2336;47.822;7.564;2024-03-22T10:24:52;17.50;99.90
4647;DHT22;2336;47.822;7.564;2024-03-22T10:27:19;17.40;99.90
4647;DHT22;2336;47.822;7.564;2024-03-22T10:29:45;17.30;99.90
4647;DHT22;2336;47.822;7.564;2024-03-22T10:32:14;17.20;99.90
4647;DHT22;2336;47.822;7.564;2024-03-22T10:34:41;17.20;99.90
4647;DHT22;2336;47.822;7.564;2024-03-22T10:37:14;17.40;99.90
4647;DHT22;2336;47.822;7.564;2024-03-22T10:39:42;17.50;99.90
4647;DHT22;2336;47.822;7.564;2024-03-22T10:42:11;17.70;99.90
4647;DHT22;2336;47.822;7.564;2024-03-22T10:44:38;17.60;99.90
4647;DHT22;2336;47.822;7.564;2024-03-22T10:47:06;17.70;99.90
4647;DHT22;2336;47.822;7.564;2024-03-22T10:49:37;17.50;99.90
4647;DHT22;2336;47.822;7.564;2024-03-22T10:52:06;17.70;99.90
4647;DHT22;2336;47.822;7.564;2024-03-22T10:54:35;18.00;99.90
4647;DHT22;2336;47.822;7.564;2024-03-22T10:57:05;18.00;99.90
4647;DHT22;2336;47.822;7.564;2024-03-22T10:59:35;18.00;99.90
4647;DHT22;2336;47.822;7.564;2024-03-22T11:02:03;18.20;99.90
4647;DHT22;2336;47.822;7.564;2024-03-22T11:04:30;18.40;99.90
4647;DHT22;2336;47.822;7.564;2024-03-22T11:06:57;18.60;99.90
4647;DHT22;2336;47.822;7.564;2024-03-22T11:09:25;18.70;99.90
4647;DHT22;2336;47.822;7.564;2024-03-22T11:11:53;18.70;99.80
4647;DHT22;2336;47.822;7.564;2024-03-22T11:14:19;18.80;99.90
4647;DHT22;2336;47.822;7.564;2024-03-22T11:16:48;19.00;99.90
4647;DHT22;2336;47.822;7.564;2024-03-22T11:19:14;19.10;99.60
4647;DHT22;2336;47.822;7.564;2024-03-22T11:21:41;19.10;98.90
4647;DHT22;2336;47.822;7.564;2024-03-22T11:24:07;19.30;98.70
4647;DHT22;2336;47.822;7.564;2024-03-22T11:26:35;19.30;98.00
4647;DHT22;2336;47.822;7.564;2024-03-22T11:29:01;19.40;97.90
4647;DHT22;2336;47.822;7.564;2024-03-22T11:31:28;19.50;98.00
4647;DHT22;2336;47.822;7.564;2024-03-22T11:33:56;19.70;97.60
4647;DHT22;2336;47.822;7.564;2024-03-22T11:36:23;19.70;96.60
4647;DHT22;2336;47.822;7.564;2024-03-22T11:38:49;19.70;98.00
4647;DHT22;2336;47.822;7.564;2024-03-22T11:41:21;19.90;97.50
4647;DHT22;2336;47.822;7.564;2024-03-22T11:43:49;20.10;98.20
4647;DHT22;2336;47.822;7.564;2024-03-22T11:46:17;20.10;97.10
4647;DHT22;2336;47.822;7.564;2024-03-22T11:48:43;20.10;96.00
4647;DHT22;2336;47.822;7.564;2024-03-22T11:51:11;20.20;96.30
4647;DHT22;2336;47.822;7.564;2024-03-22T11:53:37;20.40;96.40
4647;DHT22;2336;47.822;7.564;2024-03-22T11:56:08;20.30;94.30
4647;DHT22;2336;47.822;7.564;2024-03-22T11:58:34;20.30;96.60
4647;DHT22;2336;47.822;7.564;2024-03-22T12:01:02;20.50;95.10
4647;DHT22;2336;47.822;7.564;2024-03-22T12:03:28;20.50;92.60
4647;DHT22;2336;47.822;7.564;2024-03-22T12:05:58;20.70;91.90
4647;DHT22;2336;47.822;7.564;2024-03-22T12:08:25;20.70;90.90
4647;DHT22;2336;47.822;7.564;2024-03-22T12:10:52;20.80;89.00
4647;DHT22;2336;47.822;7.564;2024-03-22T12:13:18;20.70;89.00
4647;DHT22;2336;47.822;7.564;2024-03-22T12:15:45;20.70;90.10
4647;DHT22;2336;47.822;7.564;2024-03-22T12:18:10;20.90;90.40
4647;DHT22;2336;47.822;7.564;2024-03-22T12:20:37;21.10;87.60
4647;DHT22;2336;47.822;7.564;2024-03-22T12:23:04;21.30;85.10
4647;DHT22;2336;47.822;7.564;2024-03-22T12:25:32;21.50;85.40
4647;DHT22;2336;47.822;7.564;2024-03-22T12:27:58;21.60;85.20
4647;DHT22;2336;47.822;7.564;2024-03-22T12:30:25;21.70;81.40
4647;DHT22;2336;47.822;7.564;2024-03-22T12:32:52;21.60;82.50
4647;DHT22;2336;47.822;7.564;2024-03-22T12:35:19;21.30;81.10
4647;DHT22;2336;47.822;7.564;2024-03-22T12:37:45;21.50;81.80
4647;DHT22;2336;47.822;7.564;2024-03-22T12:40:12;21.50;78.70
4647;DHT22;2336;47.822;7.564;2024-03-22T12:42:41;21.60;76.50
4647;DHT22;2336;47.822;7.564;2024-03-22T12:45:08;21.50;80.00
4647;DHT22;2336;47.822;7.564;2024-03-22T12:47:34;21.20;78.00
4647;DHT22;2336;47.822;7.564;2024-03-22T12:50:01;21.00;74.20
4647;DHT22;2336;47.822;7.564;2024-03-22T12:52:27;20.90;73.40
4647;DHT22;2336;47.822;7.564;2024-03-22T12:54:53;20.90;74.40
4647;DHT22;2336;47.822;7.564;2024-03-22T12:57:19;21.00;78.10
4647;DHT22;2336;47.822;7.564;2024-03-22T12:59:48;20.90;75.50
4647;DHT22;2336;47.822;7.564;2024-03-22T13:02:13;21.00;73.90
4647;DHT22;2336;47.822;7.564;2024-03-22T13:04:40;21.30;77.20
4647;DHT22;2336;47.822;7.564;2024-03-22T13:07:08;21.40;73.20
4647;DHT22;2336;47.822;7.564;2024-03-22T13:09:35;21.50;72.00
4647;DHT22;2336;47.822;7.564;2024-03-22T13:12:02;21.70;75.70
4647;DHT22;2336;47.822;7.564;2024-03-22T13:14:29;21.80;78.40
4647;DHT22;2336;47.822;7.564;2024-03-22T13:16:56;21.70;75.30
4647;DHT22;2336;47.822;7.564;2024-03-22T13:19:23;21.60;74.20
4647;DHT22;2336;47.822;7.564;2024-03-22T13:21:49;21.60;74.50
4647;DHT22;2336;47.822;7.564;2024-03-22T13:24:16;21.50;72.80
4647;DHT22;2336;47.822;7.564;2024-03-22T13:26:42;21.60;74.60
4647;DHT22;2336;47.822;7.564;2024-03-22T13:29:10;21.80;73.00
4647;DHT22;2336;47.822;7.564;2024-03-22T13:31:36;21.60;72.40
4647;DHT22;2336;47.822;7.564;2024-03-22T13:34:04;21.50;71.00
4647;DHT22;2336;47.822;7.564;2024-03-22T13:36:30;21.20;71.10
4647;DHT22;2336;47.822;7.564;2024-03-22T13:38:58;21.40;70.80
4647;DHT22;2336;47.822;7.564;2024-03-22T13:41:25;21.50;68.90
4647;DHT22;2336;47.822;7.564;2024-03-22T13:43:52;21.50;67.30
4647;DHT22;2336;47.822;7.564;2024-03-22T13:46:18;21.50;69.20
4647;DHT22;2336;47.822;7.564;2024-03-22T13:48:45;21.60;66.50
4647;DHT22;2336;47.822;7.564;2024-03-22T13:51:12;21.60;66.90
4647;DHT22;2336;47.822;7.564;2024-03-22T13:53:39;21.50;69.50
4647;DHT22;2336;47.822;7.564;2024-03-22T13:56:06;21.60;74.10
4647;DHT22;2336;47.822;7.564;2024-03-22T13:58:33;21.70;73.80
4647;DHT22;2336;47.822;7.564;2024-03-22T14:00:59;21.80;71.50
4647;DHT22;2336;47.822;7.564;2024-03-22T14:03:28;21.90;72.00
4647;DHT22;2336;47.822;7.564;2024-03-22T14:05:54;21.80;67.70
4647;DHT22;2336;47.822;7.564;2024-03-22T14:08:22;21.90;72.00
4647;DHT22;2336;47.822;7.564;2024-03-22T14:10:48;21.80;70.00
4647;DHT22;2336;47.822;7.564;2024-03-22T14:13:15;21.70;70.40
4647;DHT22;2336;47.822;7.564;2024-03-22T14:15:42;21.90;73.30
4647;DHT22;2336;47.822;7.564;2024-03-22T14:18:08;22.30;71.90
4647;DHT22;2336;47.822;7.564;2024-03-22T14:20:35;22.50;71.80
4647;DHT22;2336;47.822;7.564;2024-03-22T14:23:02;22.30;72.00
4647;DHT22;2336;47.822;7.564;2024-03-22T14:25:31;22.10;70.70
4647;DHT22;2336;47.822;7.564;2024-03-22T14:27:58;22.00;71.60
4647;DHT22;2336;47.822;7.564;2024-03-22T14:30:24;21.60;70.60
4647;DHT22;2336;47.822;7.564;2024-03-22T14:32:51;21.60;71.40
4647;DHT22;2336;47.822;7.564;2024-03-22T14:35:18;21.80;71.50
4647;DHT22;2336;47.822;7.564;2024-03-22T14:37:47;21.80;71.10
4647;DHT22;2336;47.822;7.564;2024-03-22T14:40:14;21.70;71.70
4647;DHT22;2336;47.822;7.564;2024-03-22T14:42:43;21.80;69.30
4647;DHT22;2336;47.822;7.564;2024-03-22T14:45:09;21.70;70.90
4647;DHT22;2336;47.822;7.564;2024-03-22T14:47:38;21.50;70.50
4647;DHT22;2336;47.822;7.564;2024-03-22T14:50:05;21.40;70.70
4647;DHT22;2336;47.822;7.564;2024-03-22T14:52:33;21.30;68.50
4647;DHT22;2336;47.822;7.564;2024-03-22T14:54:58;21.30;69.10
4647;DHT22;2336;47.822;7.564;2024-03-22T14:57:25;21.30;69.90
4647;DHT22;2336;47.822;7.564;2024-03-22T14:59:53;21.20;71.70
4647;DHT22;2336;47.822;7.564;2024-03-22T15:02:20;21.20;71.50
4647;DHT22;2336;47.822;7.564;2024-03-22T15:04:46;21.60;70.80
4647;DHT22;2336;47.822;7.564;2024-03-22T15:07:13;21.80;71.90
4647;DHT22;2336;47.822;7.564;2024-03-22T15:09:40;21.70;72.10
4647;DHT22;2336;47.822;7.564;2024-03-22T15:12:08;21.70;75.90
4647;DHT22;2336;47.822;7.564;2024-03-22T15:14:34;21.50;70.70
4647;DHT22;2336;47.822;7.564;2024-03-22T15:17:03;21.40;71.80
4647;DHT22;2336;47.822;7.564;2024-03-22T15:19:29;21.40;71.50
4647;DHT22;2336;47.822;7.564;2024-03-22T15:21:56;21.40;71.60
4647;DHT22;2336;47.822;7.564;2024-03-22T15:24:22;21.50;72.10
4647;DHT22;2336;47.822;7.564;2024-03-22T15:26:49;21.70;73.50
4647;DHT22;2336;47.822;7.564;2024-03-22T15:29:15;21.80;70.30
4647;DHT22;2336;47.822;7.564;2024-03-22T15:31:42;21.80;70.60
4647;DHT22;2336;47.822;7.564;2024-03-22T15:34:09;21.70;71.50
4647;DHT22;2336;47.822;7.564;2024-03-22T15:36:37;21.70;73.70
4647;DHT22;2336;47.822;7.564;2024-03-22T15:39:03;21.70;72.00
4647;DHT22;2336;47.822;7.564;2024-03-22T15:41:30;21.60;74.40
4647;DHT22;2336;47.822;7.564;2024-03-22T15:43:56;21.50;73.50
4647;DHT22;2336;47.822;7.564;2024-03-22T15:46:24;21.40;73.80
4647;DHT22;2336;47.822;7.564;2024-03-22T15:48:50;21.20;74.20
4647;DHT22;2336;47.822;7.564;2024-03-22T15:51:18;21.10;74.70
4647;DHT22;2336;47.822;7.564;2024-03-22T15:53:44;21.00;74.40
4647;DHT22;2336;47.822;7.564;2024-03-22T15:56:11;21.00;75.70
4647;DHT22;2336;47.822;7.564;2024-03-22T15:58:37;20.90;77.10
4647;DHT22;2336;47.822;7.564;2024-03-22T16:01:04;20.90;77.30